sensor_id;sensor_type;location;lat;lon;timestamp;pressure;altitude;pressure_sealevel;temperature;humidity
52105;BME280;38103;42.776;23.112;2023-04-27T00:01:10;93659.25;;;5.16;68.46
52105;BME280;38103;42.776;23.112;2023-04-27T00:03:36;93656.06;;;5.14;68.20
52105;BME280;38103;42.776;23.112;2023-04-27T00:06:01;93654.63;;;5.18;67.82
52105;BME280;38103;42.776;23.112;2023-04-27T00:08:27;93660.69;;;5.12;68.17
52105;BME280;38103;42.776;23.112;2023-04-27T00:10:53;93660.28;;;5.15;68.29
52105;BME280;38103;42.776;23.112;2023-04-27T00:13:18;93650.22;;;5.05;68.09
52105;BME280;38103;42.776;23.112;2023-04-27T00:15:44;93665.53;;;5.08;68.00
52105;BME280;38103;42.776;23.112;2023-04-27T00:18:09;93670.41;;;5.05;68.07
52105;BME280;38103;42.776;23.112;2023-04-27T00:20:35;93676.47;;;4.98;68.27
52105;BME280;38103;42.776;23.112;2023-04-27T00:23:00;93674.44;;;5.00;68.08
52105;BME280;38103;42.776;23.112;2023-04-27T00:25:25;93674.44;;;5.00;68.20
52105;BME280;38103;42.776;23.112;2023-04-27T00:27:51;93668.41;;;4.93;68.36
52105;BME280;38103;42.776;23.112;2023-04-27T00:30:16;93674.47;;;4.94;68.30
52105;BME280;38103;42.776;23.112;2023-04-27T00:32:42;93669.44;;;4.92;68.45
52105;BME280;38103;42.776;23.112;2023-04-27T00:35:07;93654.75;;;4.77;68.68
52105;BME280;38103;42.776;23.112;2023-04-27T00:37:33;93671.69;;;4.82;68.95
52105;BME280;38103;42.776;23.112;2023-04-27T00:39:58;93664.00;;;4.80;68.71
52105;BME280;38103;42.776;23.112;2023-04-27T00:42:24;93671.69;;;4.82;68.84
52105;BME280;38103;42.776;23.112;2023-04-27T00:44:49;93665.22;;;4.77;68.62
52105;BME280;38103;42.776;23.112;2023-04-27T00:47:15;93665.63;;;4.74;68.75
52105;BME280;38103;42.776;23.112;2023-04-27T00:49:41;93665.81;;;4.79;68.88
52105;BME280;38103;42.776;23.112;2023-04-27T00:52:06;93676.72;;;4.76;68.96
52105;BME280;38103;42.776;23.112;2023-04-27T00:54:32;93674.31;;;4.82;68.63
52105;BME280;38103;42.776;23.112;2023-04-27T00:56:58;93675.28;;;4.80;68.57
52105;BME280;38103;42.776;23.112;2023-04-27T00:59:24;93676.72;;;4.76;68.52
52105;BME280;38103;42.776;23.112;2023-04-27T01:01:49;93674.50;;;4.73;68.60
52105;BME280;38103;42.776;23.112;2023-04-27T01:04:15;93675.31;;;4.67;68.64
52105;BME280;38103;42.776;23.112;2023-04-27T01:06:42;93639.94;;;4.37;68.90
52105;BME280;38103;42.776;23.112;2023-04-27T01:09:07;93684.00;;;4.61;69.13
52105;BME280;38103;42.776;23.112;2023-04-27T01:11:33;93684.59;;;4.63;68.96
52105;BME280;38103;42.776;23.112;2023-04-27T01:14:03;93682.38;;;4.60;69.36
52105;BME280;38103;42.776;23.112;2023-04-27T01:16:30;93683.00;;;4.55;69.41
52105;BME280;38103;42.776;23.112;2023-04-27T01:18:56;93684.63;;;4.56;69.09
52105;BME280;38103;42.776;23.112;2023-04-27T01:21:21;93687.41;;;4.54;68.70
52105;BME280;38103;42.776;23.112;2023-04-27T01:23:46;93692.47;;;4.49;69.19
52105;BME280;38103;42.776;23.112;2023-04-27T01:26:12;93698.91;;;4.40;68.60
52105;BME280;38103;42.776;23.112;2023-04-27T01:28:40;93697.50;;;4.44;69.54
52105;BME280;38103;42.776;23.112;2023-04-27T01:31:06;93694.50;;;4.40;69.45
52105;BME280;38103;42.776;23.112;2023-04-27T01:33:31;93700.34;;;4.35;69.78
52105;BME280;38103;42.776;23.112;2023-04-27T01:35:57;93699.31;;;4.36;69.12
52105;BME280;38103;42.776;23.112;2023-04-27T01:38:22;93698.31;;;4.38;69.20
52105;BME280;38103;42.776;23.112;2023-04-27T01:40:48;93697.09;;;4.33;69.38
52105;BME280;38103;42.776;23.112;2023-04-27T01:43:14;93705.56;;;4.35;69.27
52105;BME280;38103;42.776;23.112;2023-04-27T01:45:39;93697.09;;;4.33;69.36
52105;BME280;38103;42.776;23.112;2023-04-27T01:48:05;93699.53;;;4.35;69.13
52105;BME280;38103;42.776;23.112;2023-04-27T01:50:30;93702.34;;;4.33;69.45
52105;BME280;38103;42.776;23.112;2023-04-27T01:52:55;93702.75;;;4.30;69.58
52105;BME280;38103;42.776;23.112;2023-04-27T01:55:21;93705.97;;;4.32;69.22
52105;BME280;38103;42.776;23.112;2023-04-27T01:57:46;93699.13;;;4.31;69.20
52105;BME280;38103;42.776;23.112;2023-04-27T02:00:12;93705.34;;;4.23;69.45
52105;BME280;38103;42.776;23.112;2023-04-27T02:02:38;93699.94;;;4.25;69.01
52105;BME280;38103;42.776;23.112;2023-04-27T02:05:03;93674.34;;;4.13;69.09
52105;BME280;38103;42.776;23.112;2023-04-27T02:07:29;93698.31;;;4.24;68.85
52105;BME280;38103;42.776;23.112;2023-04-27T02:09:54;93708.19;;;4.22;69.08
52105;BME280;38103;42.776;23.112;2023-04-27T02:12:20;93703.94;;;4.21;68.97
52105;BME280;38103;42.776;23.112;2023-04-27T02:14:45;93700.34;;;4.22;69.09
52105;BME280;38103;42.776;23.112;2023-04-27T02:17:10;93703.94;;;4.21;68.62
52105;BME280;38103;42.776;23.112;2023-04-27T02:19:36;93705.75;;;4.20;68.83
52105;BME280;38103;42.776;23.112;2023-04-27T02:22:02;93704.34;;;4.18;69.03
52105;BME280;38103;42.776;23.112;2023-04-27T02:24:27;93710.38;;;4.11;69.06
52105;BME280;38103;42.776;23.112;2023-04-27T02:26:53;93704.75;;;4.15;69.11
52105;BME280;38103;42.776;23.112;2023-04-27T02:29:18;93711.97;;;4.12;68.94
52105;BME280;38103;42.776;23.112;2023-04-27T02:31:43;93713.22;;;4.17;69.41
52105;BME280;38103;42.776;23.112;2023-04-27T02:34:09;93714.81;;;4.11;69.35
52105;BME280;38103;42.776;23.112;2023-04-27T02:36:34;93718.84;;;4.13;69.29
52105;BME280;38103;42.776;23.112;2023-04-27T02:39:00;93722.88;;;4.09;69.41
52105;BME280;38103;42.776;23.112;2023-04-27T02:41:25;93695.66;;;3.90;69.91
52105;BME280;38103;42.776;23.112;2023-04-27T02:43:52;93719.03;;;4.05;69.59
52105;BME280;38103;42.776;23.112;2023-04-27T02:46:18;93723.66;;;4.03;70.35
52105;BME280;38103;42.776;23.112;2023-04-27T02:48:43;93727.09;;;3.97;69.78
52105;BME280;38103;42.776;23.112;2023-04-27T02:51:08;93717.59;;;3.96;70.03
52105;BME280;38103;42.776;23.112;2023-04-27T02:53:34;93722.03;;;3.88;70.15
52105;BME280;38103;42.776;23.112;2023-04-27T02:55:59;93721.44;;;3.86;70.51
52105;BME280;38103;42.776;23.112;2023-04-27T02:58:24;93728.47;;;3.86;70.25
52105;BME280;38103;42.776;23.112;2023-04-27T03:00:54;93731.25;;;3.84;70.46
52105;BME280;38103;42.776;23.112;2023-04-27T03:03:20;93713.13;;;3.69;70.83
52105;BME280;38103;42.776;23.112;2023-04-27T03:05:46;93732.66;;;3.80;71.09
52105;BME280;38103;42.776;23.112;2023-04-27T03:08:11;93738.06;;;3.72;71.22
52105;BME280;38103;42.776;23.112;2023-04-27T03:10:37;93737.06;;;3.73;71.80
52105;BME280;38103;42.776;23.112;2023-04-27T03:13:02;93730.41;;;3.63;71.95
52105;BME280;38103;42.776;23.112;2023-04-27T03:15:27;93739.03;;;3.64;72.13
52105;BME280;38103;42.776;23.112;2023-04-27T03:17:53;93741.25;;;3.60;72.37
52105;BME280;38103;42.776;23.112;2023-04-27T03:20:18;93736.41;;;3.57;72.63
52105;BME280;38103;42.776;23.112;2023-04-27T03:22:43;93743.59;;;3.41;73.38
52105;BME280;38103;42.776;23.112;2023-04-27T03:25:10;93746.38;;;3.33;73.58
52105;BME280;38103;42.776;23.112;2023-04-27T03:27:35;93705.28;;;3.06;73.84
52105;BME280;38103;42.776;23.112;2023-04-27T03:30:01;93755.59;;;3.29;74.16
52105;BME280;38103;42.776;23.112;2023-04-27T03:32:27;93752.38;;;3.27;74.42
52105;BME280;38103;42.776;23.112;2023-04-27T03:34:53;93709.44;;;3.00;74.39
52105;BME280;38103;42.776;23.112;2023-04-27T03:37:18;93758.00;;;3.30;74.53
52105;BME280;38103;42.776;23.112;2023-04-27T03:39:43;93756.00;;;3.26;74.77
52105;BME280;38103;42.776;23.112;2023-04-27T03:42:09;93755.75;;;3.20;74.88
52105;BME280;38103;42.776;23.112;2023-04-27T03:44:34;93762.38;;;3.16;74.81
52105;BME280;38103;42.776;23.112;2023-04-27T03:47:00;93761.13;;;3.12;75.33
52105;BME280;38103;42.776;23.112;2023-04-27T03:49:26;93761.13;;;3.12;75.54
52105;BME280;38103;42.776;23.112;2023-04-27T03:51:51;93767.16;;;3.12;75.61
52105;BME280;38103;42.776;23.112;2023-04-27T03:54:17;93780.53;;;3.24;75.86
52105;BME280;38103;42.776;23.112;2023-04-27T03:56:42;93779.31;;;3.27;75.40
52105;BME280;38103;42.776;23.112;2023-04-27T03:59:10;93771.34;;;3.42;75.10
52105;BME280;38103;42.776;23.112;2023-04-27T04:01:36;93772.63;;;3.60;74.61
52105;BME280;38103;42.776;23.112;2023-04-27T04:04:01;93771.13;;;3.86;73.46
52105;BME280;38103;42.776;23.112;2023-04-27T04:06:27;93773.16;;;4.05;72.72
52105;BME280;38103;42.776;23.112;2023-04-27T04:08:52;93767.16;;;4.24;71.54
52105;BME280;38103;42.776;23.112;2023-04-27T04:11:18;93792.13;;;4.41;70.80
52105;BME280;38103;42.776;23.112;2023-04-27T04:13:43;93789.94;;;4.65;70.58
52105;BME280;38103;42.776;23.112;2023-04-27T04:16:09;93790.94;;;4.91;69.33
52105;BME280;38103;42.776;23.112;2023-04-27T04:18:35;93801.00;;;5.08;67.81
52105;BME280;38103;42.776;23.112;2023-04-27T04:21:01;93795.72;;;5.21;67.72
52105;BME280;38103;42.776;23.112;2023-04-27T04:23:27;93793.69;;;5.37;66.97
52105;BME280;38103;42.776;23.112;2023-04-27T04:25:54;93808.53;;;5.57;66.50
52105;BME280;38103;42.776;23.112;2023-04-27T04:28:21;93795.22;;;5.65;65.77
52105;BME280;38103;42.776;23.112;2023-04-27T04:30:46;93796.81;;;5.73;66.16
52105;BME280;38103;42.776;23.112;2023-04-27T04:33:12;93797.63;;;5.74;66.12
52105;BME280;38103;42.776;23.112;2023-04-27T04:35:38;93781.91;;;5.60;65.45
52105;BME280;38103;42.776;23.112;2023-04-27T04:38:03;93798.50;;;6.00;65.46
52105;BME280;38103;42.776;23.112;2023-04-27T04:40:29;93804.41;;;6.34;64.68
52105;BME280;38103;42.776;23.112;2023-04-27T04:42:54;93808.91;;;6.59;63.17
52105;BME280;38103;42.776;23.112;2023-04-27T04:45:19;93804.13;;;6.75;61.81
52105;BME280;38103;42.776;23.112;2023-04-27T04:47:45;93805.38;;;6.98;61.84
52105;BME280;38103;42.776;23.112;2023-04-27T04:50:11;93814.09;;;7.18;61.20
52105;BME280;38103;42.776;23.112;2023-04-27T04:52:37;93814.63;;;7.45;60.56
52105;BME280;38103;42.776;23.112;2023-04-27T04:55:03;93814.06;;;7.62;60.17
52105;BME280;38103;42.776;23.112;2023-04-27T04:57:29;93813.47;;;7.79;60.24
52105;BME280;38103;42.776;23.112;2023-04-27T04:59:54;93816.09;;;7.98;59.05
52105;BME280;38103;42.776;23.112;2023-04-27T05:02:20;93819.88;;;8.02;58.01
52105;BME280;38103;42.776;23.112;2023-04-27T05:04:45;93824.38;;;7.82;58.34
52105;BME280;38103;42.776;23.112;2023-04-27T05:07:11;93827.06;;;7.94;59.14
52105;BME280;38103;42.776;23.112;2023-04-27T05:09:37;93827.25;;;8.12;58.77
52105;BME280;38103;42.776;23.112;2023-04-27T05:12:02;93830.41;;;8.21;58.51
52105;BME280;38103;42.776;23.112;2023-04-27T05:14:28;93829.16;;;8.54;57.40
52105;BME280;38103;42.776;23.112;2023-04-27T05:16:53;93829.94;;;8.55;57.05
52105;BME280;38103;42.776;23.112;2023-04-27T05:19:18;93827.53;;;8.53;56.03
52105;BME280;38103;42.776;23.112;2023-04-27T05:21:45;93831.22;;;8.52;55.89
52105;BME280;38103;42.776;23.112;2023-04-27T05:24:11;93815.84;;;8.49;54.98
52105;BME280;38103;42.776;23.112;2023-04-27T05:26:37;93831.78;;;8.85;54.55
52105;BME280;38103;42.776;23.112;2023-04-27T05:29:03;93816.19;;;8.83;54.52
52105;BME280;38103;42.776;23.112;2023-04-27T05:31:28;93835.72;;;9.07;53.52
52105;BME280;38103;42.776;23.112;2023-04-27T05:33:53;93833.19;;;9.12;54.24
52105;BME280;38103;42.776;23.112;2023-04-27T05:36:19;93830.44;;;9.31;52.91
52105;BME280;38103;42.776;23.112;2023-04-27T05:38:44;93836.88;;;9.35;52.95
52105;BME280;38103;42.776;23.112;2023-04-27T05:41:09;93843.97;;;9.46;53.10
52105;BME280;38103;42.776;23.112;2023-04-27T05:43:35;93848.91;;;9.79;51.41
52105;BME280;38103;42.776;23.112;2023-04-27T05:46:03;93843.72;;;9.84;49.73
52105;BME280;38103;42.776;23.112;2023-04-27T05:48:28;93843.50;;;9.74;51.04
52105;BME280;38103;42.776;23.112;2023-04-27T05:51:01;93833.63;;;9.57;50.69
52105;BME280;38103;42.776;23.112;2023-04-27T05:53:28;93847.44;;;9.35;50.88
52105;BME280;38103;42.776;23.112;2023-04-27T05:55:54;93848.56;;;9.27;51.38
52105;BME280;38103;42.776;23.112;2023-04-27T05:58:20;93848.22;;;9.23;51.99
52105;BME280;38103;42.776;23.112;2023-04-27T06:00:45;93851.31;;;9.44;51.14
52105;BME280;38103;42.776;23.112;2023-04-27T06:03:11;93857.16;;;9.34;52.44
52105;BME280;38103;42.776;23.112;2023-04-27T06:05:36;93862.31;;;9.41;52.48
52105;BME280;38103;42.776;23.112;2023-04-27T06:08:02;93854.16;;;9.67;52.54
52105;BME280;38103;42.776;23.112;2023-04-27T06:10:27;93846.84;;;9.69;52.64
52105;BME280;38103;42.776;23.112;2023-04-27T06:12:53;93860.84;;;9.81;50.94
52105;BME280;38103;42.776;23.112;2023-04-27T06:15:18;93851.00;;;10.06;50.63
52105;BME280;38103;42.776;23.112;2023-04-27T06:17:44;93848.94;;;10.08;48.46
52105;BME280;38103;42.776;23.112;2023-04-27T06:20:10;93852.72;;;10.12;49.62
52105;BME280;38103;42.776;23.112;2023-04-27T06:22:36;93807.41;;;9.91;50.30
52105;BME280;38103;42.776;23.112;2023-04-27T06:25:03;93849.53;;;10.39;50.08
52105;BME280;38103;42.776;23.112;2023-04-27T06:27:28;93851.06;;;10.65;50.20
52105;BME280;38103;42.776;23.112;2023-04-27T06:29:53;93844.03;;;10.70;50.39
52105;BME280;38103;42.776;23.112;2023-04-27T06:32:19;93845.44;;;11.08;49.55
52105;BME280;38103;42.776;23.112;2023-04-27T06:34:45;93837.75;;;11.23;47.77
52105;BME280;38103;42.776;23.112;2023-04-27T06:37:10;93827.72;;;11.25;47.80
52105;BME280;38103;42.776;23.112;2023-04-27T06:39:36;93849.69;;;11.43;47.25
52105;BME280;38103;42.776;23.112;2023-04-27T06:42:01;93804.78;;;11.14;47.27
52105;BME280;38103;42.776;23.112;2023-04-27T06:44:29;93842.00;;;11.07;47.80
52105;BME280;38103;42.776;23.112;2023-04-27T06:46:55;93834.94;;;11.13;47.44
52105;BME280;38103;42.776;23.112;2023-04-27T06:49:20;93838.28;;;10.91;46.30
52105;BME280;38103;42.776;23.112;2023-04-27T06:51:47;93841.53;;;10.64;46.40
52105;BME280;38103;42.776;23.112;2023-04-27T06:54:12;93841.81;;;10.79;48.31
52105;BME280;38103;42.776;23.112;2023-04-27T06:56:38;93828.84;;;10.95;47.60
52105;BME280;38103;42.776;23.112;2023-04-27T06:59:03;93843.66;;;10.96;49.52
52105;BME280;38103;42.776;23.112;2023-04-27T07:01:29;93846.47;;;11.06;48.16
52105;BME280;38103;42.776;23.112;2023-04-27T07:03:54;93838.44;;;11.01;46.83
52105;BME280;38103;42.776;23.112;2023-04-27T07:06:21;93835.56;;;10.86;46.76
52105;BME280;38103;42.776;23.112;2023-04-27T07:08:46;93838.66;;;10.82;49.38
52105;BME280;38103;42.776;23.112;2023-04-27T07:11:12;93834.59;;;10.92;47.40
52105;BME280;38103;42.776;23.112;2023-04-27T07:13:37;93835.25;;;10.99;48.36
52105;BME280;38103;42.776;23.112;2023-04-27T07:16:03;93841.19;;;11.06;48.34
52105;BME280;38103;42.776;23.112;2023-04-27T07:18:28;93835.41;;;11.10;48.44
52105;BME280;38103;42.776;23.112;2023-04-27T07:20:54;93807.69;;;10.95;46.25
52105;BME280;38103;42.776;23.112;2023-04-27T07:23:22;93838.78;;;11.22;48.06
52105;BME280;38103;42.776;23.112;2023-04-27T07:25:47;93804.63;;;11.21;48.26
52105;BME280;38103;42.776;23.112;2023-04-27T07:28:13;93834.09;;;11.64;47.09
52105;BME280;38103;42.776;23.112;2023-04-27T07:30:39;93798.47;;;11.55;46.34
52105;BME280;38103;42.776;23.112;2023-04-27T07:33:07;93798.78;;;11.58;46.09
52105;BME280;38103;42.776;23.112;2023-04-27T07:35:32;93837.66;;;11.75;45.28
52105;BME280;38103;42.776;23.112;2023-04-27T07:37:59;93835.81;;;11.76;46.64
52105;BME280;38103;42.776;23.112;2023-04-27T07:40:26;93832.69;;;11.79;46.12
52105;BME280;38103;42.776;23.112;2023-04-27T07:42:52;93837.28;;;11.66;44.88
52105;BME280;38103;42.776;23.112;2023-04-27T07:45:17;93833.13;;;11.93;45.76
52105;BME280;38103;42.776;23.112;2023-04-27T07:47:43;93838.78;;;12.02;48.93
52105;BME280;38103;42.776;23.112;2023-04-27T07:50:09;93833.75;;;12.23;46.40
52105;BME280;38103;42.776;23.112;2023-04-27T07:52:35;93828.47;;;12.23;46.37
52105;BME280;38103;42.776;23.112;2023-04-27T07:55:01;93831.88;;;12.18;46.07
52105;BME280;38103;42.776;23.112;2023-04-27T07:57:27;93836.41;;;12.23;46.19
52105;BME280;38103;42.776;23.112;2023-04-27T07:59:53;93831.72;;;12.30;46.05
52105;BME280;38103;42.776;23.112;2023-04-27T08:02:18;93834.13;;;12.32;45.47
52105;BME280;38103;42.776;23.112;2023-04-27T08:04:43;93840.28;;;12.37;44.65
52105;BME280;38103;42.776;23.112;2023-04-27T08:07:09;93830.97;;;12.35;45.10
52105;BME280;38103;42.776;23.112;2023-04-27T08:09:34;93834.38;;;12.30;44.61
52105;BME280;38103;42.776;23.112;2023-04-27T08:12:00;93832.66;;;12.18;43.70
52105;BME280;38103;42.776;23.112;2023-04-27T08:14:27;93835.94;;;12.26;46.67
52105;BME280;38103;42.776;23.112;2023-04-27T08:16:52;93842.88;;;12.32;43.16
52105;BME280;38103;42.776;23.112;2023-04-27T08:19:18;93817.88;;;12.50;44.41
52105;BME280;38103;42.776;23.112;2023-04-27T08:21:43;93837.50;;;12.77;43.61
52105;BME280;38103;42.776;23.112;2023-04-27T08:24:09;93840.69;;;12.79;42.19
52105;BME280;38103;42.776;23.112;2023-04-27T08:26:34;93834.91;;;12.82;42.48
52105;BME280;38103;42.776;23.112;2023-04-27T08:29:01;93832.34;;;12.93;44.45
52105;BME280;38103;42.776;23.112;2023-04-27T08:31:26;93833.50;;;13.07;45.63
52105;BME280;38103;42.776;23.112;2023-04-27T08:33:52;93831.53;;;13.25;41.39
52105;BME280;38103;42.776;23.112;2023-04-27T08:36:20;93827.09;;;13.36;43.66
52105;BME280;38103;42.776;23.112;2023-04-27T08:38:49;93837.41;;;13.33;40.81
52105;BME280;38103;42.776;23.112;2023-04-27T08:41:21;93836.41;;;13.39;42.49
52105;BME280;38103;42.776;23.112;2023-04-27T08:43:48;93834.78;;;13.38;41.63
52105;BME280;38103;42.776;23.112;2023-04-27T08:46:22;93795.31;;;13.09;40.63
52105;BME280;38103;42.776;23.112;2023-04-27T08:48:52;93839.09;;;13.44;40.74
52105;BME280;38103;42.776;23.112;2023-04-27T08:51:18;93833.13;;;13.26;43.14
52105;BME280;38103;42.776;23.112;2023-04-27T08:53:55;93834.31;;;13.46;41.86
52105;BME280;38103;42.776;23.112;2023-04-27T08:56:23;93836.50;;;13.55;44.08
52105;BME280;38103;42.776;23.112;2023-04-27T08:58:50;93839.63;;;13.46;41.42
52105;BME280;38103;42.776;23.112;2023-04-27T09:01:15;93816.25;;;13.43;42.31
52105;BME280;38103;42.776;23.112;2023-04-27T09:03:41;93826.63;;;13.45;42.85
52105;BME280;38103;42.776;23.112;2023-04-27T09:06:07;93839.72;;;13.57;46.83
52105;BME280;38103;42.776;23.112;2023-04-27T09:08:47;93836.41;;;13.39;40.85
52105;BME280;38103;42.776;23.112;2023-04-27T09:11:13;93793.13;;;13.00;44.23
52105;BME280;38103;42.776;23.112;2023-04-27T09:13:42;93840.56;;;13.24;44.88
52105;BME280;38103;42.776;23.112;2023-04-27T09:16:11;93812.53;;;13.06;43.25
52105;BME280;38103;42.776;23.112;2023-04-27T09:18:40;93833.41;;;13.30;44.16
52105;BME280;38103;42.776;23.112;2023-04-27T09:21:06;93827.81;;;13.26;44.82
52105;BME280;38103;42.776;23.112;2023-04-27T09:23:33;93826.22;;;13.25;41.75
52105;BME280;38103;42.776;23.112;2023-04-27T09:26:00;93827.00;;;13.26;44.03
52105;BME280;38103;42.776;23.112;2023-04-27T09:28:27;93822.66;;;13.47;44.39
52105;BME280;38103;42.776;23.112;2023-04-27T09:30:57;93825.72;;;13.28;44.06
52105;BME280;38103;42.776;23.112;2023-04-27T09:33:30;93814.34;;;13.00;42.91
52105;BME280;38103;42.776;23.112;2023-04-27T09:35:58;93816.00;;;13.12;44.07
52105;BME280;38103;42.776;23.112;2023-04-27T09:38:23;93821.44;;;13.27;48.27
52105;BME280;38103;42.776;23.112;2023-04-27T09:40:50;93820.00;;;13.47;46.52
52105;BME280;38103;42.776;23.112;2023-04-27T09:43:16;93795.59;;;13.56;42.55
52105;BME280;38103;42.776;23.112;2023-04-27T09:45:42;93805.25;;;13.67;41.83
52105;BME280;38103;42.776;23.112;2023-04-27T09:48:08;93778.69;;;13.24;43.12
52105;BME280;38103;42.776;23.112;2023-04-27T09:50:39;93810.41;;;13.46;40.75
52105;BME280;38103;42.776;23.112;2023-04-27T09:53:07;93811.22;;;13.47;40.30
52105;BME280;38103;42.776;23.112;2023-04-27T09:56:41;93804.03;;;13.42;42.17
52105;BME280;38103;42.776;23.112;2023-04-27T10:01:45;93802.06;;;13.65;43.73
52105;BME280;38103;42.776;23.112;2023-04-27T10:07:01;93799.94;;;13.67;42.83
52105;BME280;38103;42.776;23.112;2023-04-27T10:09:33;93807.44;;;13.76;43.81
52105;BME280;38103;42.776;23.112;2023-04-27T10:12:14;93802.13;;;13.76;40.32
52105;BME280;38103;42.776;23.112;2023-04-27T10:14:50;93806.34;;;13.33;40.08
52105;BME280;38103;42.776;23.112;2023-04-27T10:17:16;93799.81;;;13.46;41.90
52105;BME280;38103;42.776;23.112;2023-04-27T10:19:52;93801.31;;;13.32;41.45
52105;BME280;38103;42.776;23.112;2023-04-27T10:22:19;93790.63;;;13.21;41.19
52105;BME280;38103;42.776;23.112;2023-04-27T10:24:48;93801.81;;;13.28;39.41
52105;BME280;38103;42.776;23.112;2023-04-27T10:27:16;93800.78;;;13.29;42.69
52105;BME280;38103;42.776;23.112;2023-04-27T10:29:45;93797.59;;;13.33;42.40
52105;BME280;38103;42.776;23.112;2023-04-27T10:34:38;93774.34;;;13.12;40.05
52105;BME280;38103;42.776;23.112;2023-04-27T10:37:07;93803.97;;;13.32;41.31
52105;BME280;38103;42.776;23.112;2023-04-27T10:39:35;93801.50;;;13.58;39.92
52105;BME280;38103;42.776;23.112;2023-04-27T10:42:02;93799.69;;;13.69;41.15
52105;BME280;38103;42.776;23.112;2023-04-27T10:44:29;93809.06;;;13.44;39.81
52105;BME280;38103;42.776;23.112;2023-04-27T10:47:00;93800.53;;;13.36;39.49
52105;BME280;38103;42.776;23.112;2023-04-27T10:49:29;93792.00;;;13.29;42.12
52105;BME280;38103;42.776;23.112;2023-04-27T10:51:57;93802.91;;;13.33;39.94
52105;BME280;38103;42.776;23.112;2023-04-27T10:54:27;93802.41;;;13.41;38.60
52105;BME280;38103;42.776;23.112;2023-04-27T10:56:53;93797.78;;;13.21;40.23
52105;BME280;38103;42.776;23.112;2023-04-27T10:59:19;93806.69;;;13.04;42.28
52105;BME280;38103;42.776;23.112;2023-04-27T11:01:47;93802.44;;;13.03;41.23
52105;BME280;38103;42.776;23.112;2023-04-27T11:04:14;93809.53;;;12.97;40.54
52105;BME280;38103;42.776;23.112;2023-04-27T11:06:42;93794.38;;;12.59;40.42
52105;BME280;38103;42.776;23.112;2023-04-27T11:09:08;93800.28;;;12.67;40.65
52105;BME280;38103;42.776;23.112;2023-04-27T11:11:35;93806.16;;;12.74;40.31
52105;BME280;38103;42.776;23.112;2023-04-27T11:14:00;93780.13;;;12.71;41.49
52105;BME280;38103;42.776;23.112;2023-04-27T11:16:28;93800.88;;;12.74;41.92
52105;BME280;38103;42.776;23.112;2023-04-27T11:18:53;93805.16;;;12.80;41.16
52105;BME280;38103;42.776;23.112;2023-04-27T11:21:18;93768.53;;;12.77;42.43
52105;BME280;38103;42.776;23.112;2023-04-27T11:23:47;93789.47;;;13.12;43.67
52105;BME280;38103;42.776;23.112;2023-04-27T11:26:17;93808.50;;;13.36;47.05
52105;BME280;38103;42.776;23.112;2023-04-27T11:28:44;93805.41;;;13.50;38.36
52105;BME280;38103;42.776;23.112;2023-04-27T11:31:21;93811.66;;;13.33;39.78
52105;BME280;38103;42.776;23.112;2023-04-27T11:33:47;93801.28;;;13.26;39.14
52105;BME280;38103;42.776;23.112;2023-04-27T11:36:17;93807.13;;;13.28;39.82
52105;BME280;38103;42.776;23.112;2023-04-27T11:38:43;93817.00;;;13.38;42.49
52105;BME280;38103;42.776;23.112;2023-04-27T11:41:08;93815.81;;;13.57;42.71
52105;BME280;38103;42.776;23.112;2023-04-27T11:43:36;93791.28;;;13.44;40.23
52105;BME280;38103;42.776;23.112;2023-04-27T11:46:05;93819.50;;;13.56;37.25
52105;BME280;38103;42.776;23.112;2023-04-27T11:48:39;93799.91;;;13.18;40.18
52105;BME280;38103;42.776;23.112;2023-04-27T11:51:09;93815.44;;;13.04;39.67
52105;BME280;38103;42.776;23.112;2023-04-27T11:53:38;93818.75;;;12.89;44.99
52105;BME280;38103;42.776;23.112;2023-04-27T11:56:05;93807.97;;;12.96;43.93
52105;BME280;38103;42.776;23.112;2023-04-27T11:58:35;93820.13;;;12.92;43.18
52105;BME280;38103;42.776;23.112;2023-04-27T12:01:02;93793.25;;;12.55;42.33
52105;BME280;38103;42.776;23.112;2023-04-27T12:03:28;93811.16;;;12.43;40.34
52105;BME280;38103;42.776;23.112;2023-04-27T12:05:55;93818.56;;;12.40;41.05
52105;BME280;38103;42.776;23.112;2023-04-27T12:08:21;93822.38;;;12.50;42.52
52105;BME280;38103;42.776;23.112;2023-04-27T12:10:47;93821.97;;;12.63;40.84
52105;BME280;38103;42.776;23.112;2023-04-27T12:13:13;93810.97;;;12.77;43.10
52105;BME280;38103;42.776;23.112;2023-04-27T12:15:39;93814.16;;;12.79;43.63
52105;BME280;38103;42.776;23.112;2023-04-27T12:18:05;93825.38;;;12.87;41.86
52105;BME280;38103;42.776;23.112;2023-04-27T12:20:30;93805.94;;;12.81;42.82
52105;BME280;38103;42.776;23.112;2023-04-27T12:22:56;93814.84;;;12.97;43.43
52105;BME280;38103;42.776;23.112;2023-04-27T12:25:22;93816.59;;;13.14;41.26
52105;BME280;38103;42.776;23.112;2023-04-27T12:27:48;93810.78;;;13.22;41.07
52105;BME280;38103;42.776;23.112;2023-04-27T12:30:13;93813.47;;;13.27;40.89
52105;BME280;38103;42.776;23.112;2023-04-27T12:32:39;93813.72;;;13.21;42.34
52105;BME280;38103;42.776;23.112;2023-04-27T12:35:06;93812.97;;;13.30;41.09
52105;BME280;38103;42.776;23.112;2023-04-27T12:37:32;93817.47;;;13.30;41.03
52105;BME280;38103;42.776;23.112;2023-04-27T12:39:57;93815.09;;;13.28;40.11
52105;BME280;38103;42.776;23.112;2023-04-27T12:42:23;93818.72;;;13.17;40.18
52105;BME280;38103;42.776;23.112;2023-04-27T12:44:49;93813.34;;;13.12;39.80
52105;BME280;38103;42.776;23.112;2023-04-27T12:47:20;93810.66;;;13.01;40.24
52105;BME280;38103;42.776;23.112;2023-04-27T12:49:46;93781.34;;;12.85;41.81
52105;BME280;38103;42.776;23.112;2023-04-27T12:52:11;93814.22;;;13.17;40.38
52105;BME280;38103;42.776;23.112;2023-04-27T12:54:37;93810.59;;;13.29;42.48
52105;BME280;38103;42.776;23.112;2023-04-27T12:57:03;93814.03;;;13.29;39.48
52105;BME280;38103;42.776;23.112;2023-04-27T12:59:32;93817.47;;;13.30;41.86